Storm Wave — CZ9636 — position and weather

sailwx.info

Track history (hours):
 
Tides and Currents Weather Stations Pressure Air Temp Water Temp Dewpoint Dewpoint Depression Visibility Wind Speed Wind Dir Waves Ship Positions

Storm Wave

Last reported at 2017-Dec-11 09:30 UTC. Time now 2017-Dec-11 09:44 UTC.
Position N 49°12' W 123°06'.

Length 19 m; draft 4.2 m.

Type: Tug. MMSI: 316001222.

Date/timePositionNaut miles runAvg speedWind from/ knotsBaromVisibWave heightAir tempDewpointWater temp
2017-Dec-11 09:30N 49°12' W 123°06'71035.6
2017-Dec-11 09:30N 49°17' W 122°58'715.0
2017-Dec-11 09:00N 49°12' W 123°06'71683.8
2017-Dec-11 09:00N 49°17' W 122°58'815.7
2017-Dec-11 08:30N 49°12' W 123°07'81631.9
2017-Dec-11 08:30N 49°17' W 122°58'0 0.0
2017-Dec-11 08:00N 49°17' W 122°58'81324.1
2017-Dec-11 08:00N 49°12' W 123°08'0 0.0
2017-Dec-11 07:30N 49°12' W 123°08'81170.6
2017-Dec-11 07:30N 49°18' W 122°59'817.3
2017-Dec-11 07:00N 49°12' W 123°08'8517.9
2017-Dec-11 07:00N 49°18' W 123°00'1 1.8
2017-Dec-11 06:30N 49°18' W 122°59'92050.7
2017-Dec-11 06:30N 49°12' W 123°08'0 0.1
2017-Dec-11 06:00N 49°12' W 123°08'81215.1
2017-Dec-11 05:59N 49°17' W 122°58'0 0.1
2017-Dec-11 05:30N 49°17' W 122°58'87620.8
2017-Dec-11 05:30N 49°12' W 123°08'1 1.8
2017-Dec-11 05:00N 49°12' W 123°07'8322.1
2017-Dec-11 04:59N 49°17' W 122°58'0 0.0
2017-Dec-11 04:30N 49°17' W 122°58'6890.8
2017-Dec-11 04:30N 49°12' W 123°00'611.6
2017-Dec-11 03:59N 49°17' W 122°58'6251.7
2017-Dec-11 03:58N 49°12' W 122°54'0 0.9
2017-Dec-11 03:30N 49°12' W 122°54'61223.1
2017-Dec-11 03:30N 49°17' W 122°58'0 0.0
2017-Dec-11 03:00N 49°17' W 122°58'6134.6
2017-Dec-11 02:58N 49°12' W 122°57'612.6
2017-Dec-11 02:30N 49°17' W 122°58'65631.9
2017-Dec-11 02:30N 49°11' W 122°60'3 5.5
2017-Dec-11 02:00N 49°12' W 123°04'6143.6
2017-Dec-11 01:58N 49°17' W 122°58'0 0.0
2017-Dec-11 01:30N 49°17' W 122°58'86084.1
2017-Dec-11 01:30N 49°12' W 123°08'816.8
2017-Dec-11 01:00N 49°17' W 122°58'102651.8
2017-Dec-11 01:00N 49°13' W 123°12'3 6.0
2017-Dec-11 00:30N 49°15' W 123°15'113387.4
2017-Dec-11 00:30N 49°18' W 122°59'1326.6
2017-Dec-11 00:00N 49°16' W 123°18'161012.4
2017-Dec-11 00:00N 49°17' W 122°54'1837.6
2017-Dec-10 23:30N 49°17' W 123°22'173636.8
2017-Dec-10 23:30N 49°18' W 122°56'2 3.1
2017-Dec-10 23:00N 49°17' W 122°58'182790.5
2017-Dec-10 23:00N 49°18' W 123°26'1836.1
2017-Dec-10 22:30N 49°17' W 122°58'19170.1
2017-Dec-10 22:23N 49°21' W 123°26'1948.4
2017-Dec-10 22:00N 49°17' W 122°58'19148.4
2017-Dec-10 21:53N 49°24' W 123°25'2 4.9
2017-Dec-10 21:30N 49°26' W 123°27'202077.5
2017-Dec-10 21:30N 49°17' W 122°58'0 0.0
2017-Dec-10 21:00N 49°17' W 122°58'225635.3
2017-Dec-10 21:00N 49°28' W 123°28'3 6.7
2017-Dec-10 20:30N 49°31' W 123°28'2412270.2
2017-Dec-10 20:30N 49°17' W 122°58'0 0.0
2017-Dec-10 20:00N 49°17' W 122°58'24497.9
2017-Dec-10 19:57N 49°32' W 123°29'0 0.7
2017-Dec-10 19:30N 49°31' W 123°29'245317.1
2017-Dec-10 19:30N 49°18' W 122°59'3 6.7
2017-Dec-10 19:00N 49°17' W 122°54'263974.3
2017-Dec-10 19:00N 49°31' W 123°29'2 3.6
2017-Dec-10 18:30N 49°29' W 123°28'232397.6
2017-Dec-10 18:30N 49°18' W 122°57'2245.0
2017-Dec-10 18:00N 49°27' W 123°28'2112703.6
2017-Dec-10 18:00N 49°17' W 122°58'1938.4
2017-Dec-10 17:30N 49°25' W 123°26'194626.0
2017-Dec-10 17:30N 49°17' W 122°58'1937.8
2017-Dec-10 17:00N 49°22' W 123°26'1913435.2
2017-Dec-10 17:00N 49°17' W 122°58'1836.2
2017-Dec-10 16:30N 49°20' W 123°26'184970.8
2017-Dec-10 16:30N 49°17' W 122°58'1631.5
2017-Dec-10 16:00N 49°18' W 123°22'164020.0
2017-Dec-10 16:00N 49°17' W 122°58'1427.1
2017-Dec-10 15:30N 49°17' W 123°19'148112.2
2017-Dec-10 15:30N 49°17' W 122°58'1223.9
2017-Dec-10 15:00N 49°15' W 123°16'12951.4
2017-Dec-10 15:00N 49°17' W 122°58'1122.1
2017-Dec-10 14:30N 49°14' W 123°15'111096.5
2017-Dec-10 14:29N 49°17' W 122°58'1020.9
2017-Dec-10 14:00N 49°13' W 123°13'107264.9
2017-Dec-10 14:00N 49°17' W 122°58'0 0.0
2017-Dec-10 13:29N 49°17' W 122°58'91327.4
2017-Dec-10 13:29N 49°13' W 123°10'918.6
2017-Dec-10 13:00N 49°17' W 122°58'9477.6
2017-Dec-10 12:59N 49°12' W 123°09'917.9
2017-Dec-10 12:30N 49°17' W 122°58'9190.9
2017-Dec-10 12:27N 49°12' W 123°09'919.1
2017-Dec-10 12:00N 49°17' W 122°58'9127.2
2017-Dec-10 11:56N 49°12' W 123°09'0 0.0
2017-Dec-10 11:30N 49°12' W 123°09'92086.7
2017-Dec-10 11:30N 49°17' W 122°58'0 0.0
2017-Dec-10 11:00N 49°17' W 122°58'9187.4
2017-Dec-10 10:57N 49°12' W 123°09'918.9
2017-Dec-10 10:30N 49°17' W 122°58'9711.7
2017-Dec-10 10:29N 49°12' W 123°09'0 0.0
2017-Dec-10 10:00N 49°12' W 123°09'9920.6
2017-Dec-10 10:00N 49°17' W 122°58'0 0.0
2017-Dec-10 09:30N 49°17' W 122°58'936.2
2017-Dec-10 09:15N 49°12' W 123°09'0 0.2
2017-Dec-10 09:01N 49°12' W 123°09'91642.8
2017-Dec-10 09:00N 49°17' W 122°58'0 0.0
2017-Dec-10 08:30N 49°17' W 122°58'91945.2
2017-Dec-10 08:30N 49°12' W 123°09'2 4.0
2017-Dec-10 08:00N 49°12' W 123°06'8231.8
2017-Dec-10 07:59N 49°17' W 122°58'1 2.8
2017-Dec-10 07:30N 49°18' W 123°00'6860.5
2017-Dec-10 07:30N 49°12' W 123°03'4 7.5
2017-Dec-10 07:00N 49°11' W 122°58'7438.5
2017-Dec-10 07:00N 49°18' W 123°02'714.1
2017-Dec-10 06:30N 49°11' W 122°58'64594.4
2017-Dec-10 06:30N 49°18' W 122°59'1 1.4
2017-Dec-10 06:00N 49°18' W 122°60'7714.7
2017-Dec-10 06:00N 49°11' W 122°58'713.2
2017-Dec-10 05:30N 49°18' W 123°00'7177.9
2017-Dec-10 05:28N 49°11' W 122°58'714.5
2017-Dec-10 05:00N 49°18' W 122°59'7960.7
2017-Dec-10 05:00N 49°11' W 122°58'612.8
2017-Dec-10 04:30N 49°17' W 122°58'71000.1
2017-Dec-10 04:30N 49°11' W 122°59'713.5
2017-Dec-10 04:00N 49°17' W 122°58'61513.7
2017-Dec-10 04:00N 49°12' W 123°01'611.7
2017-Dec-10 03:30N 49°17' W 122°58'76032.0
2017-Dec-10 03:30N 49°12' W 123°05'713.5
2017-Dec-10 03:00N 49°17' W 122°58'81261.6
2017-Dec-10 03:00N 49°12' W 123°08'817.2
2017-Dec-10 02:30N 49°17' W 122°58'1034260.3
2017-Dec-10 02:30N 49°13' W 123°11'1018.8
2017-Dec-10 02:00N 49°17' W 122°58'1110084.7
2017-Dec-10 02:00N 49°15' W 123°15'2 4.2
2017-Dec-10 01:30N 49°16' W 123°18'111434.6
2017-Dec-10 01:30N 49°18' W 123°01'1327.3
2017-Dec-10 01:00N 49°17' W 123°22'117777.0
2017-Dec-10 01:00N 49°17' W 123°05'1 2.9
2017-Dec-10 00:30N 49°19' W 123°06'1315793.9
2017-Dec-10 00:30N 49°19' W 123°26'1326.9
2017-Dec-10 00:00N 49°18' W 123°06'172507.3
2017-Dec-10 00:00N 49°21' W 123°31'2 4.0
2017-Dec-09 23:30N 49°19' W 123°30'163465.5
2017-Dec-09 23:30N 49°17' W 123°05'1 1.2
2017-Dec-09 23:00N 49°18' W 123°06'14587.6
2017-Dec-09 22:59N 49°15' W 123°27'5 9.5
2017-Dec-09 22:30N 49°11' W 123°23'139171.2
2017-Dec-09 22:30N 49°18' W 123°07'0 0.0
2017-Dec-09 22:01N 49°18' W 123°07'1384.8
2017-Dec-09 21:51N 49°07' W 123°17'410.2
2017-Dec-09 21:31N 49°07' W 123°12'112154.9
2017-Dec-09 21:30N 49°18' W 123°07'1021.0
2017-Dec-09 21:00N 49°07' W 123°04'102344.9
2017-Dec-09 21:00N 49°18' W 123°07'0 0.0
2017-Dec-09 20:30N 49°18' W 123°07'101478.3
2017-Dec-09 20:30N 49°09' W 122°60'0 0.4
2017-Dec-09 20:00N 49°09' W 122°60'105917.9
2017-Dec-09 20:00N 49°18' W 123°07'0 0.1
2017-Dec-09 19:30N 49°18' W 123°07'101052.8
2017-Dec-09 19:30N 49°09' W 122°59'918.8
2017-Dec-09 19:00N 49°18' W 123°05'92221.3
2017-Dec-09 19:00N 49°11' W 122°55'2 3.3
2017-Dec-09 18:30N 49°11' W 122°58'74817.0
2017-Dec-09 18:30N 49°18' W 123°01'611.7
2017-Dec-09 18:00N 49°12' W 123°04'61507.0
2017-Dec-09 18:00N 49°17' W 122°58'0 0.0
2017-Dec-09 17:30N 49°17' W 122°58'76069.2
2017-Dec-09 17:30N 49°12' W 123°05'2 3.7
2017-Dec-09 17:00N 49°12' W 123°08'81989.3
2017-Dec-09 17:00N 49°17' W 122°58'0 0.0
2017-Dec-09 16:30N 49°17' W 122°58'9344.5
2017-Dec-09 16:28N 49°13' W 123°10'3 6.1
2017-Dec-09 16:00N 49°12' W 123°06'81808.0
2017-Dec-09 16:00N 49°17' W 122°58'612.0
2017-Dec-09 15:30N 49°12' W 123°01'6387.6
2017-Dec-09 15:30N 49°17' W 122°58'0 0.0
2017-Dec-09 15:00N 49°17' W 122°58'6350.5
2017-Dec-09 14:59N 49°12' W 122°55'612.7
2017-Dec-09 14:30N 49°17' W 122°58'85814.8
2017-Dec-09 14:30N 49°09' W 122°59'1 2.0
2017-Dec-09 14:00N 49°09' W 123°00'81248.2
2017-Dec-09 14:00N 49°17' W 122°58'1020.7
2017-Dec-09 13:30N 49°08' W 123°04'102282.1
2017-Dec-09 13:30N 49°17' W 122°58'0 0.6
2017-Dec-09 13:00N 49°18' W 122°59'13864.2
2017-Dec-09 12:59N 49°07' W 123°09'1225.4
2017-Dec-09 12:30N 49°18' W 123°00'13553.4
2017-Dec-09 12:28N 49°08' W 123°14'1327.8
2017-Dec-09 12:00N 49°18' W 123°01'16333.1
2017-Dec-09 11:57N 49°06' W 123°18'1533.0
2017-Dec-09 11:30N 49°18' W 123°04'1980.4
2017-Dec-09 11:16N 49°01' W 123°18'1966.1
2017-Dec-09 10:59N 49°19' W 123°05'22508.3
2017-Dec-09 10:57N 48°59' W 123°17'2249.3
2017-Dec-09 10:30N 49°19' W 123°05'251422.1
2017-Dec-09 10:29N 48°55' W 123°18'2552.4
2017-Dec-09 10:00N 49°19' W 123°05'291912.5
2017-Dec-09 09:59N 48°52' W 123°20'2959.2
2017-Dec-09 09:30N 49°19' W 123°05'311179.2
2017-Dec-09 09:29N 48°49' W 123°21'3166.4
2017-Dec-09 09:00N 49°19' W 123°05'0 0.0
2017-Dec-09 08:30N 49°19' W 123°05'0 0.0
2017-Dec-09 08:00N 49°19' W 123°05'42445.9
2017-Dec-09 07:55N 48°37' W 123°21'3 6.9
2017-Dec-09 07:30N 48°35' W 123°19'445887.1
2017-Dec-09 07:30N 49°18' W 123°05'4896.5
2017-Dec-09 07:00N 48°31' W 123°18'4728169.5
2017-Dec-09 07:00N 49°18' W 123°05'50100.5
2017-Dec-09 06:30N 48°28' W 123°16'513306.5
2017-Dec-09 06:30N 49°18' W 123°02'54110.5
2017-Dec-09 06:00N 48°25' W 123°17'543521.4
2017-Dec-09 06:00N 49°17' W 122°58'56114.9
2017-Dec-09 05:30N 48°24' W 123°21'5613346.5
2017-Dec-09 05:30N 49°18' W 123°00'54108.9
2017-Dec-09 05:00N 48°26' W 123°22'544122.3
2017-Dec-09 05:00N 49°18' W 123°01'53109.8
2017-Dec-09 04:30N 48°26' W 123°22'545503.2
2017-Dec-09 04:30N 49°18' W 123°00'1 2.4
2017-Dec-09 04:00N 49°18' W 122°59'551906.1
2017-Dec-09 03:59N 48°25' W 123°22'54114.0
2017-Dec-09 03:30N 49°17' W 122°58'54914.8
2017-Dec-09 03:26N 48°25' W 123°22'54124.9
2017-Dec-09 03:00N 49°17' W 122°58'541483.1
2017-Dec-09 02:58N 48°25' W 123°22'1 3.2
2017-Dec-09 02:30N 48°24' W 123°23'5611823.8
2017-Dec-09 02:30N 49°17' W 122°58'54108.7
2017-Dec-09 02:00N 48°25' W 123°17'542584.2
2017-Dec-09 01:59N 49°17' W 122°58'49103.0
2017-Dec-09 01:30N 48°30' W 123°17'492338.9
2017-Dec-09 01:29N 49°17' W 122°58'0 0.0
2017-Dec-09 01:00N 49°17' W 122°58'44976.6
2017-Dec-09 00:57N 48°35' W 123°19'4499.1
2017-Dec-09 00:30N 49°17' W 122°58'38132.8
2017-Dec-09 00:13N 48°43' W 123°21'38171.6
2017-Dec-09 00:00N 49°18' W 122°59'365597.1
2017-Dec-09 00:00N 48°45' W 123°21'3571.8
2017-Dec-08 23:30N 49°18' W 123°01'3228629.8
2017-Dec-08 23:30N 48°50' W 123°25'510.7
2017-Dec-08 23:00N 48°54' W 123°29'2817024.6
2017-Dec-08 23:00N 49°19' W 123°06'0 0.6
2017-Dec-08 22:30N 49°19' W 123°06'1 2.8
2017-Dec-08 22:00N 49°17' W 123°05'1 2.9
2017-Dec-08 21:30N 49°19' W 123°06'0 0.4
2017-Dec-08 21:00N 49°18' W 123°06'1 2.4
2017-Dec-08 20:30N 49°17' W 123°05'2 3.2
2017-Dec-08 20:00N 49°18' W 123°03'3 5.6
2017-Dec-08 19:30N 49°17' W 122°58'1 1.6
2017-Dec-08 19:00N 49°18' W 122°57'2 4.5
2017-Dec-08 18:30N 49°17' W 122°54'2 3.2
2017-Dec-08 18:00N 49°18' W 122°56'1 2.9
2017-Dec-08 17:30N 49°18' W 122°58'0 0.1
2017-Dec-08 17:00N 49°17' W 122°58'0 0.1
2017-Dec-08 16:30N 49°18' W 122°58'0 0.1
2017-Dec-08 16:00N 49°17' W 122°58'0 0.0
2017-Dec-08 15:30N 49°17' W 122°58'0 0.0
2017-Dec-08 15:00N 49°17' W 122°58'0 0.0
2017-Dec-08 14:30N 49°17' W 122°58'0 0.0
2017-Dec-08 14:00N 49°17' W 122°58'0 0.0
2017-Dec-08 13:30N 49°17' W 122°58'0 0.0
2017-Dec-08 13:00N 49°17' W 122°58'0 0.0
2017-Dec-08 12:30N 49°17' W 122°58'0 0.0
2017-Dec-08 12:00N 49°17' W 122°58'2774.4
2017-Dec-08 11:38N 49°24' W 123°39'27200.9
2017-Dec-08 11:30N 49°18' W 122°59'261721.2
2017-Dec-08 11:29N 49°24' W 123°38'2551.0
2017-Dec-08 11:00N 49°18' W 123°01'22155.3
2017-Dec-08 10:52N 49°22' W 123°34'2057.2
2017-Dec-08 10:30N 49°18' W 123°03'19710.3
2017-Dec-08 10:29N 49°21' W 123°31'2041.1
2017-Dec-08 10:00N 49°18' W 123°01'184295.2
2017-Dec-08 09:59N 49°20' W 123°28'3 5.9
2017-Dec-08 09:30N 49°19' W 123°24'178751.0
2017-Dec-08 09:30N 49°17' W 122°58'1529.7
2017-Dec-08 09:00N 49°18' W 123°21'153531.4
2017-Dec-08 09:00N 49°17' W 122°58'0 0.0
2017-Dec-08 08:30N 49°17' W 122°58'133286.2
2017-Dec-08 08:30N 49°16' W 123°18'3 6.6
2017-Dec-08 08:00N 49°14' W 123°14'112437.7
2017-Dec-08 08:00N 49°17' W 122°58'0 0.0
2017-Dec-08 07:30N 49°17' W 122°58'951.8
2017-Dec-08 07:20N 49°12' W 123°09'925.6
2017-Dec-08 07:00N 49°17' W 122°58'75268.4
2017-Dec-08 07:00N 49°12' W 123°06'0 0.6
2017-Dec-08 06:30N 49°12' W 123°06'75105.2
2017-Dec-08 06:30N 49°17' W 122°58'0 0.0
2017-Dec-08 06:00N 49°17' W 122°58'87576.5
2017-Dec-08 06:00N 49°12' W 123°08'816.9
2017-Dec-08 05:30N 49°17' W 122°58'8921.6
2017-Dec-08 05:30N 49°12' W 123°08'817.0
2017-Dec-08 05:00N 49°17' W 122°58'87603.1
2017-Dec-08 05:00N 49°12' W 123°08'817.1
2017-Dec-08 04:30N 49°17' W 122°58'86061.2
2017-Dec-08 04:30N 49°12' W 123°08'0 0.0
2017-Dec-08 04:00N 49°12' W 123°08'82028.1
2017-Dec-08 04:00N 49°18' W 122°59'816.5
2017-Dec-08 03:30N 49°12' W 123°08'83883.1
2017-Dec-08 03:30N 49°18' W 123°01'612.1
2017-Dec-08 03:00N 49°12' W 123°05'73950.7
2017-Dec-08 03:00N 49°17' W 122°58'0 0.0
2017-Dec-08 02:30N 49°17' W 122°58'61641.9
2017-Dec-08 02:30N 49°12' W 123°04'612.8
2017-Dec-08 02:00N 49°17' W 122°58'76743.4
2017-Dec-08 02:00N 49°12' W 123°06'0 0.0
2017-Dec-08 01:30N 49°12' W 123°06'7313.5
2017-Dec-08 01:29N 49°17' W 122°58'715.8
2017-Dec-08 01:00N 49°12' W 123°06'71586.7
2017-Dec-08 01:00N 49°17' W 122°58'715.3
2017-Dec-08 00:30N 49°12' W 123°06'8485.6
2017-Dec-08 00:30N 49°17' W 122°58'815.4
2017-Dec-08 00:00N 49°12' W 123°06'10372.1
2017-Dec-07 23:59N 49°17' W 122°54'3 6.1
2017-Dec-07 23:30N 49°18' W 122°58'82176.1
2017-Dec-07 23:30N 49°12' W 123°06'713.8
2017-Dec-07 23:00N 49°18' W 123°01'71644.2
2017-Dec-07 23:00N 49°12' W 123°06'0 0.0
2017-Dec-07 22:30N 49°12' W 123°06'7499.8
2017-Dec-07 22:29N 49°17' W 122°58'715.6
2017-Dec-07 22:00N 49°12' W 123°06'8752.4
2017-Dec-07 22:00N 49°18' W 122°58'0 0.0
2017-Dec-07 21:30N 49°18' W 122°58'6918.7
2017-Dec-07 21:30N 49°12' W 123°01'611.9
2017-Dec-07 21:00N 49°18' W 122°58'622.8
2017-Dec-07 20:45N 49°12' W 122°57'623.5
2017-Dec-07 20:30N 49°18' W 122°58'639.7
2017-Dec-07 20:21N 49°12' W 122°55'617.6
2017-Dec-07 20:00N 49°18' W 122°58'696.9
2017-Dec-07 19:56N 49°12' W 122°54'1 2.6
2017-Dec-07 19:30N 49°13' W 122°53'51232.6
2017-Dec-07 19:30N 49°18' W 122°58'3 6.0
2017-Dec-07 19:00N 49°17' W 122°54'630.0
2017-Dec-07 18:48N 49°12' W 122°57'2 6.0
2017-Dec-07 18:30N 49°11' W 122°59'71490.6
2017-Dec-07 18:30N 49°18' W 122°56'2 3.1
2017-Dec-07 18:00N 49°18' W 122°58'632.9
2017-Dec-07 17:49N 49°12' W 122°55'1 4.2
2017-Dec-07 17:30N 49°13' W 122°54'6658.4
2017-Dec-07 17:30N 49°18' W 122°59'2 4.3
2017-Dec-07 17:00N 49°18' W 123°02'81932.0
2017-Dec-07 17:00N 49°13' W 122°54'816.9
2017-Dec-07 16:30N 49°18' W 123°04'8876.5
2017-Dec-07 16:30N 49°13' W 122°54'3 5.9
2017-Dec-07 16:00N 49°11' W 122°58'7363.1
2017-Dec-07 15:59N 49°18' W 123°01'714.0
2017-Dec-07 15:30N 49°11' W 122°60'7417.9
2017-Dec-07 15:29N 49°18' W 122°58'612.9
2017-Dec-07 15:00N 49°12' W 123°04'63838.9
2017-Dec-07 15:00N 49°17' W 122°58'816.3
2017-Dec-07 14:30N 49°12' W 123°07'8841.5
2017-Dec-07 14:29N 49°18' W 122°58'918.5
2017-Dec-07 14:00N 49°13' W 123°09'9489.7
2017-Dec-07 13:59N 49°18' W 122°58'1122.5
2017-Dec-07 13:30N 49°14' W 123°13'112368.9
2017-Dec-07 13:30N 49°17' W 122°58'1325.7
2017-Dec-07 13:00N 49°16' W 123°18'131227.1
2017-Dec-07 13:00N 49°17' W 122°58'1632.6
2017-Dec-07 12:30N 49°17' W 123°23'161597.6
2017-Dec-07 12:30N 49°17' W 122°58'0 0.0
2017-Dec-07 12:00N 49°17' W 122°58'181419.2
2017-Dec-07 11:59N 49°20' W 123°26'1837.1
2017-Dec-07 11:30N 49°18' W 122°58'19125.3
2017-Dec-07 11:21N 49°24' W 123°25'1749.9
2017-Dec-07 11:00N 49°18' W 123°01'20317.4
2017-Dec-07 10:56N 49°27' W 123°28'2147.6
2017-Dec-07 10:30N 49°18' W 122°59'23498.8
2017-Dec-07 10:28N 49°31' W 123°28'2350.4
2017-Dec-07 10:00N 49°18' W 122°59'241311.1
2017-Dec-07 09:59N 49°31' W 123°29'0 0.1
2017-Dec-07 09:30N 49°31' W 123°29'2316680.1
2017-Dec-07 09:30N 49°18' W 123°00'2346.1
2017-Dec-07 09:00N 49°31' W 123°28'235806.5
2017-Dec-07 09:00N 49°18' W 123°00'2041.0
2017-Dec-07 08:30N 49°27' W 123°28'211757.1
2017-Dec-07 08:30N 49°17' W 122°58'0 0.0
2017-Dec-07 08:00N 49°17' W 122°58'1949.7
2017-Dec-07 07:37N 49°21' W 123°26'19157.9
2017-Dec-07 07:30N 49°17' W 122°58'19902.2
2017-Dec-07 07:29N 49°20' W 123°27'4 7.3
2017-Dec-07 07:00N 49°18' W 123°22'162434.2
2017-Dec-07 07:00N 49°17' W 122°58'1326.0
2017-Dec-07 06:31N 49°16' W 123°18'132387.2
2017-Dec-07 06:30N 49°17' W 122°58'1121.6
2017-Dec-07 06:01N 49°14' W 123°14'112141.2
2017-Dec-07 06:00N 49°17' W 122°58'918.3
2017-Dec-07 05:30N 49°13' W 123°11'9719.9
2017-Dec-07 05:29N 49°17' W 122°58'0 0.0
2017-Dec-07 05:00N 49°17' W 122°58'8869.3
2017-Dec-07 05:00N 49°12' W 123°08'817.2
2017-Dec-07 04:30N 49°17' W 122°58'76629.5
2017-Dec-07 04:30N 49°12' W 123°06'1 1.8
2017-Dec-07 04:00N 49°12' W 123°08'8343.3
2017-Dec-07 03:59N 49°17' W 122°58'817.6
2017-Dec-07 03:30N 49°12' W 123°08'81174.6
2017-Dec-07 03:30N 49°17' W 122°58'817.5
2017-Dec-07 03:00N 49°12' W 123°08'8265.7
2017-Dec-07 02:59N 49°17' W 122°58'817.9
2017-Dec-07 02:30N 49°12' W 123°08'81909.6
2017-Dec-07 02:30N 49°17' W 122°58'817.1
2017-Dec-07 02:00N 49°12' W 123°08'8535.8
2017-Dec-07 01:59N 49°17' W 122°58'817.5
2017-Dec-07 01:30N 49°12' W 123°08'8318.1
2017-Dec-07 01:29N 49°17' W 122°58'817.8
2017-Dec-07 01:00N 49°12' W 123°08'8114.4
2017-Dec-07 00:56N 49°17' W 122°58'920.2
2017-Dec-07 00:29N 49°13' W 123°10'9565.0
2017-Dec-07 00:29N 49°17' W 122°58'1123.8
2017-Dec-07 00:00N 49°15' W 123°15'11118.1
2017-Dec-06 23:54N 49°17' W 122°58'1434.0
2017-Dec-06 23:29N 49°12' W 123°19'14147.4
2017-Dec-06 23:24N 49°17' W 122°58'0 0.0
2017-Dec-06 23:00N 49°17' W 122°58'18608.7
2017-Dec-06 22:59N 49°07' W 123°21'4 9.0
2017-Dec-06 22:30N 49°03' W 123°19'202966.7
2017-Dec-06 22:30N 49°17' W 122°58'0 0.0
2017-Dec-06 22:00N 49°17' W 122°58'24179.5
2017-Dec-06 21:51N 48°57' W 123°17'3 9.8
2017-Dec-06 21:31N 48°53' W 123°18'272720.8
2017-Dec-06 21:30N 49°18' W 122°59'3163.7
2017-Dec-06 21:00N 48°50' W 123°21'316901.2
2017-Dec-06 21:00N 49°18' W 123°00'  
2017-Dec-04 10:30N 49°11' W 123°26'3 5.7
2017-Dec-04 10:00N 49°09' W 123°23'3 5.8
2017-Dec-04 09:29N 49°07' W 123°20'4 7.6
2017-Dec-04 08:58N 49°08' W 123°14'1467.9
2017-Dec-04 08:46N 49°17' W 122°58'0 0.2
2017-Dec-04 08:30N 49°17' W 122°58'121859.2
2017-Dec-04 08:30N 49°07' W 123°07'611.5
2017-Dec-04 08:00N 49°09' W 122°60'84934.7
2017-Dec-04 08:00N 49°17' W 122°58'611.7
2017-Dec-04 07:30N 49°13' W 122°53'63526.1
2017-Dec-04 07:30N 49°17' W 122°58'0 0.0
2017-Dec-04 07:00N 49°17' W 122°58'10490.1
2017-Dec-04 06:58N 49°13' W 122°45'1021.3
2017-Dec-04 06:31N 49°18' W 122°58'1490.5
2017-Dec-04 06:21N 49°12' W 122°40'1438.7
2017-Dec-04 06:00N 49°17' W 122°58'112953.8
2017-Dec-04 06:00N 49°12' W 122°43'1122.6
2017-Dec-04 05:30N 49°17' W 122°58'8938.7
2017-Dec-04 05:29N 49°13' W 122°48'3 6.0
2017-Dec-04 05:01N 49°13' W 122°52'6428.4
2017-Dec-04 05:00N 49°17' W 122°58'511.1
2017-Dec-04 04:30N 49°13' W 122°53'5726.3
2017-Dec-04 04:30N 49°17' W 122°58'0 0.0
2017-Dec-04 04:00N 49°17' W 122°58'652.3
2017-Dec-04 03:54N 49°12' W 122°57'2 5.2
2017-Dec-04 03:30N 49°11' W 123°00'63135.9
2017-Dec-04 03:30N 49°17' W 122°58'0 0.0
2017-Dec-04 03:01N 49°17' W 122°58'0 0.0
2017-Dec-04 02:30N 49°17' W 122°58'0 0.0
2017-Dec-04 02:00N 49°17' W 122°58'0 0.0
2017-Dec-04 01:29N 49°17' W 122°58'0 0.0
2017-Dec-04 01:00N 49°17' W 122°58'0 0.0
2017-Dec-04 00:30N 49°17' W 122°58'0 0.0
2017-Dec-04 00:01N 49°17' W 122°58'0 0.0
2017-Dec-03 23:30N 49°17' W 122°58'0 0.0
2017-Dec-03 22:59N 49°17' W 122°58'0 0.0
2017-Dec-03 22:30N 49°17' W 122°58'0 0.0
2017-Dec-03 22:00N 49°17' W 122°58'669.1
2017-Dec-03 21:55N 49°12' W 122°55'615.3
2017-Dec-03 21:30N 49°17' W 122°58'81263.4
2017-Dec-03 21:30N 49°09' W 122°58'816.4
2017-Dec-03 21:00N 49°17' W 122°58'102788.9
2017-Dec-03 21:00N 49°08' W 123°04'1020.3
2017-Dec-03 20:30N 49°17' W 122°58'111260.6
2017-Dec-03 20:30N 49°07' W 123°05'1122.5
2017-Dec-03 20:00N 49°17' W 122°58'11138.6
2017-Dec-03 19:55N 49°07' W 123°05'1126.7
2017-Dec-03 19:30N 49°17' W 122°58'111260.0
2017-Dec-03 19:29N 49°07' W 123°05'1326.1
2017-Dec-03 19:00N 49°17' W 122°54'13624.9
2017-Dec-03 18:59N 49°07' W 123°05'0 0.1
2017-Dec-03 18:30N 49°07' W 123°05'125453.2
2017-Dec-03 18:30N 49°18' W 122°56'1 2.9
2017-Dec-03 18:00N 49°17' W 122°58'1140536.1
2017-Dec-03 18:00N 49°07' W 123°06'1122.5
2017-Dec-03 17:30N 49°17' W 122°58'92609.0
2017-Dec-03 17:30N 49°08' W 123°03'919.0
2017-Dec-03 17:00N 49°17' W 122°58'82635.3
2017-Dec-03 17:00N 49°09' W 122°57'816.2
2017-Dec-03 16:30N 49°17' W 122°58'6113.1
2017-Dec-03 16:27N 49°12' W 122°54'1 3.3
2017-Dec-03 16:00N 49°13' W 122°53'52470.7
2017-Dec-03 16:00N 49°17' W 122°58'0 0.0
2017-Dec-03 15:30N 49°17' W 122°58'82544.5
2017-Dec-03 15:30N 49°13' W 122°47'817.0
2017-Dec-03 15:00N 49°17' W 122°58'1463.9
2017-Dec-03 14:47N 49°12' W 122°40'1446.4
2017-Dec-03 14:30N 49°17' W 122°58'13941.3
2017-Dec-03 14:29N 49°11' W 122°40'1327.8
2017-Dec-03 14:00N 49°17' W 122°58'121405.8
2017-Dec-03 14:00N 49°11' W 122°43'1223.8
2017-Dec-03 13:30N 49°17' W 122°58'10512.7
2017-Dec-03 13:29N 49°13' W 122°45'1021.1
2017-Dec-03 13:00N 49°17' W 122°58'8329.4
2017-Dec-03 12:59N 49°13' W 122°49'815.7
2017-Dec-03 12:30N 49°17' W 122°58'6631.3
2017-Dec-03 12:30N 49°13' W 122°53'1 2.9
2017-Dec-03 12:00N 49°12' W 122°55'61342.1
2017-Dec-03 12:00N 49°17' W 122°58'715.0
2017-Dec-03 11:30N 49°10' W 122°56'73812.2
2017-Dec-03 11:30N 49°17' W 122°58'816.1
2017-Dec-03 11:00N 49°09' W 122°58'81071.8
2017-Dec-03 11:00N 49°17' W 122°58'917.5
2017-Dec-03 10:30N 49°09' W 123°01'93437.9
2017-Dec-03 10:30N 49°17' W 122°58'0 0.0
2017-Dec-03 10:00N 49°17' W 122°58'101197.8
2017-Dec-03 10:00N 49°08' W 123°04'1020.8
2017-Dec-03 09:30N 49°17' W 122°58'121349.9
2017-Dec-03 09:29N 49°07' W 123°07'1224.4
2017-Dec-03 09:00N 49°17' W 122°58'1323576.4
2017-Dec-03 09:00N 49°07' W 123°10'1326.5
2017-Dec-03 08:30N 49°17' W 122°58'1324293.6
2017-Dec-03 08:30N 49°07' W 123°12'1427.0
2017-Dec-03 08:00N 49°17' W 122°58'15854.8
2017-Dec-03 07:59N 49°07' W 123°15'1530.1
2017-Dec-03 07:30N 49°18' W 122°59'16557.5
2017-Dec-03 07:29N 49°07' W 123°17'1532.5
2017-Dec-03 07:01N 49°18' W 123°00'16411.1
2017-Dec-03 06:58N 49°06' W 123°18'1635.2
2017-Dec-03 06:30N 49°18' W 123°00'15366.1
2017-Dec-03 06:28N 49°08' W 123°19'1635.2
2017-Dec-03 06:00N 49°17' W 122°58'1518034.2
2017-Dec-03 06:00N 49°11' W 123°19'1530.3
2017-Dec-03 05:30N 49°17' W 122°58'1425303.1
2017-Dec-03 05:30N 49°14' W 123°19'1428.2
2017-Dec-03 05:00N 49°17' W 122°58'142330.0
2017-Dec-03 05:00N 49°15' W 123°20'1428.5
2017-Dec-03 04:30N 49°17' W 122°58'0 0.0
2017-Dec-03 04:00N 49°17' W 122°58'15104.1
2017-Dec-03 03:52N 49°16' W 123°22'1542.8
2017-Dec-03 03:30N 49°17' W 122°58'0 0.0
2017-Dec-03 03:00N 49°17' W 122°58'0 0.0
2017-Dec-03 02:30N 49°17' W 122°58'0 0.0
2017-Dec-03 02:00N 49°17' W 122°58'0 0.0
2017-Dec-03 01:28N 49°17' W 122°58'0 0.0
2017-Dec-03 01:00N 49°17' W 122°58'0 0.0
2017-Dec-03 00:30N 49°17' W 122°58'0 0.0
2017-Dec-03 00:00N 49°17' W 122°58'2560.0
2017-Dec-02 23:35N 49°23' W 123°36'25303.3
2017-Dec-02 23:30N 49°17' W 122°58'0 0.0
2017-Dec-02 23:00N 49°17' W 122°58'1 1.7
2017-Dec-02 22:30N 49°18' W 122°57'2 4.4
2017-Dec-02 22:00N 49°17' W 122°54'2 4.7
2017-Dec-02 21:30N 49°18' W 122°57'1 1.5
2017-Dec-02 21:00N 49°17' W 122°58'0 0.0
2017-Dec-02 20:30N 49°17' W 122°58'0 0.0
2017-Dec-02 19:58N 49°17' W 122°58'0 0.0
2017-Dec-02 19:29N 49°17' W 122°58'0 0.2
2017-Dec-02 19:00N 49°17' W 122°58'0 0.2
2017-Dec-02 18:30N 49°17' W 122°58'3 6.1
2017-Dec-02 18:00N 49°17' W 122°54'2 3.1
2017-Dec-02 17:31N 49°18' W 122°56'1 2.9
2017-Dec-02 17:00N 49°17' W 122°58'0 0.0
2017-Dec-02 16:30N 49°17' W 122°58'0 0.0
2017-Dec-02 16:00N 49°17' W 122°58'0 0.0
2017-Dec-02 15:30N 49°17' W 122°58'0 0.0
2017-Dec-02 15:00N 49°17' W 122°58'0 0.0
2017-Dec-02 14:30N 49°17' W 122°58'0 0.0
2017-Dec-02 14:00N 49°17' W 122°58'0 0.0
2017-Dec-02 13:28N 49°17' W 122°58'2 4.7
2017-Dec-02 13:00N 49°18' W 123°02'2 4.4
2017-Dec-02 12:31N 49°18' W 123°05'21681.6
2017-Dec-02 12:29N 49°23' W 123°37'2349.3
2017-Dec-02 12:00N 49°18' W 123°02'206140.8
2017-Dec-02 12:00N 49°22' W 123°32'2346.1
2017-Dec-02 11:31N 49°17' W 122°58'192834.9
2017-Dec-02 11:30N 49°20' W 123°27'1937.7
2017-Dec-02 11:00N 49°17' W 122°58'151669.7
2017-Dec-02 10:59N 49°18' W 123°22'3 7.0
2017-Dec-02 10:30N 49°16' W 123°18'136585.4
2017-Dec-02 10:30N 49°17' W 122°58'0 0.0
2017-Dec-02 10:00N 49°17' W 122°58'11809.9
2017-Dec-02 10:00N 49°15' W 123°16'1123.7
2017-Dec-02 09:31N 49°17' W 122°58'0 0.0
2017-Dec-02 09:00N 49°17' W 122°58'113440.7
2017-Dec-02 09:00N 49°15' W 123°16'1123.2
2017-Dec-02 08:31N 49°17' W 122°58'1126.1
2017-Dec-02 08:04N 49°15' W 123°16'11172.0
2017-Dec-02 08:00N 49°17' W 122°58'113176.0
2017-Dec-02 08:00N 49°15' W 123°16'1123.2
2017-Dec-02 07:30N 49°17' W 122°58'1130.3
2017-Dec-02 07:08N 49°15' W 123°16'1085.2
2017-Dec-02 07:00N 49°18' W 123°00'0 0.4
2017-Dec-02 06:30N 49°17' W 123°00'1056.2
2017-Dec-02 06:19N 49°15' W 123°16'0 0.0
2017-Dec-02 06:00N 49°15' W 123°16'116830.2
2017-Dec-02 06:00N 49°18' W 122°59'0 0.4
2017-Dec-02 05:30N 49°17' W 122°58'11959.9
2017-Dec-02 05:30N 49°15' W 123°16'1123.5
2017-Dec-02 05:00N 49°17' W 122°58'121811.7
2017-Dec-02 05:00N 49°15' W 123°16'2 4.7
2017-Dec-02 04:30N 49°14' W 123°19'141702.3
2017-Dec-02 04:30N 49°17' W 122°58'0 0.0
2017-Dec-02 04:00N 49°17' W 122°58'16133.6
2017-Dec-02 03:53N 49°08' W 123°19'1643.6
2017-Dec-02 03:30N 49°17' W 122°58'14175.9
2017-Dec-02 03:25N 49°08' W 123°15'511.8
2017-Dec-02 03:00N 49°07' W 123°07'124912.6
2017-Dec-02 03:00N 49°17' W 122°58'0 0.0
2017-Dec-02 02:30N 49°17' W 122°58'101597.6
2017-Dec-02 02:30N 49°08' W 123°03'1020.7
2017-Dec-02 02:00N 49°17' W 122°58'8189.3
2017-Dec-02 01:58N 49°09' W 122°57'817.6
2017-Dec-02 01:30N 49°17' W 122°58'6645.2
2017-Dec-02 01:30N 49°12' W 122°57'4 7.2
2017-Dec-02 01:00N 49°12' W 123°03'63032.4
2017-Dec-02 01:00N 49°17' W 122°58'0 0.0
2017-Dec-02 00:30N 49°17' W 122°58'78938.4
2017-Dec-02 00:30N 49°12' W 123°06'715.1
2017-Dec-02 00:00N 49°17' W 122°58'713399.5
2017-Dec-02 00:00N 49°12' W 123°06'714.9
2017-Dec-01 23:30N 49°17' W 122°58'71165.9
2017-Dec-01 23:30N 49°12' W 123°06'0 0.0
2017-Dec-01 23:00N 49°12' W 123°06'73830.7
2017-Dec-01 23:00N 49°17' W 122°58'0 0.0
2017-Dec-01 22:30N 49°17' W 122°58'71914.2
2017-Dec-01 22:30N 49°12' W 123°06'1 1.9
2017-Dec-01 22:00N 49°12' W 123°08'81693.4
2017-Dec-01 22:00N 49°17' W 122°58'0 0.0
2017-Dec-01 21:30N 49°17' W 122°58'8481.3
2017-Dec-01 21:29N 49°12' W 123°08'817.4
2017-Dec-01 21:00N 49°17' W 122°58'828950.6
2017-Dec-01 21:00N 49°12' W 123°08'816.1
2017-Dec-01 20:30N 49°17' W 122°58'71165.9
2017-Dec-01 20:30N 49°12' W 123°06'0 0.0
2017-Dec-01 20:00N 49°12' W 123°06'7583.3
2017-Dec-01 20:00N 49°17' W 122°58'0 0.0
2017-Dec-01 19:30N 49°17' W 122°58'78943.7
2017-Dec-01 19:30N 49°12' W 123°06'715.1
2017-Dec-01 19:00N 49°17' W 122°58'72446.3
2017-Dec-01 19:00N 49°12' W 123°06'715.1
2017-Dec-01 18:30N 49°17' W 122°58'71166.6
2017-Dec-01 18:30N 49°12' W 123°06'714.5
2017-Dec-01 18:00N 49°18' W 122°60'712886.0
2017-Dec-01 18:00N 49°12' W 123°06'0 0.0
2017-Dec-01 17:30N 49°12' W 123°06'74090.4
2017-Dec-01 17:30N 49°18' W 123°00'713.7
2017-Dec-01 17:00N 49°12' W 123°06'83864.8
2017-Dec-01 17:00N 49°18' W 122°58'715.0
2017-Dec-01 16:30N 49°12' W 123°06'73845.0
2017-Dec-01 16:30N 49°18' W 122°58'0 0.2
2017-Dec-01 16:00N 49°17' W 122°58'72234.6
2017-Dec-01 16:00N 49°12' W 123°06'0 0.0
2017-Dec-01 15:30N 49°12' W 123°06'74471.9
2017-Dec-01 15:30N 49°17' W 122°58'0 0.0
2017-Dec-01 15:00N 49°17' W 122°58'72061.5
2017-Dec-01 15:00N 49°12' W 123°06'715.0
2017-Dec-01 14:30N 49°17' W 122°58'71165.9
2017-Dec-01 14:30N 49°12' W 123°06'0 0.0
2017-Dec-01 14:00N 49°12' W 123°06'74469.2
2017-Dec-01 14:00N 49°17' W 122°58'0 0.0
2017-Dec-01 13:30N 49°17' W 122°58'71915.4
2017-Dec-01 13:30N 49°12' W 123°06'0 0.0
2017-Dec-01 13:00N 49°12' W 123°06'73349.9
2017-Dec-01 13:00N 49°17' W 122°58'0 0.0
2017-Dec-01 12:30N 49°17' W 122°58'78938.4
2017-Dec-01 12:30N 49°12' W 123°06'714.9
2017-Dec-01 12:00N 49°17' W 122°58'71218.9
2017-Dec-01 12:00N 49°12' W 123°06'715.1
2017-Dec-01 11:30N 49°17' W 122°58'71913.1
2017-Dec-01 11:30N 49°12' W 123°06'714.8
2017-Dec-01 11:00N 49°17' W 122°58'76723.4
2017-Dec-01 11:00N 49°12' W 123°06'0 0.1
2017-Dec-01 10:30N 49°12' W 123°06'7129.5
2017-Dec-01 10:27N 49°17' W 122°58'716.5
2017-Dec-01 10:00N 49°12' W 123°06'7170.8
2017-Dec-01 09:57N 49°17' W 122°58'  
Track history (hours):
 
Tides and Currents Weather Stations Pressure Air Temp Water Temp Dewpoint Dewpoint Depression Visibility Wind Speed Wind Dir Waves Ship Positions

Storm Wave

Last reported at 2017-Dec-11 09:30 UTC. Time now 2017-Dec-11 09:44 UTC.
Position N 49°12' W 123°06'.

Length 19 m; draft 4.2 m.

Type: Tug. MMSI: 316001222.

Date/timePositionNaut miles runAvg speedWind from/ knotsBaromVisibWave heightAir tempDewpointWater temp
2017-Dec-11 09:30N 49°12' W 123°06'71035.6
2017-Dec-11 09:30N 49°17' W 122°58'715.0
2017-Dec-11 09:00N 49°12' W 123°06'71683.8
2017-Dec-11 09:00N 49°17' W 122°58'815.7
2017-Dec-11 08:30N 49°12' W 123°07'81631.9
2017-Dec-11 08:30N 49°17' W 122°58'0 0.0
2017-Dec-11 08:00N 49°17' W 122°58'81324.1
2017-Dec-11 08:00N 49°12' W 123°08'0 0.0
2017-Dec-11 07:30N 49°12' W 123°08'81170.6
2017-Dec-11 07:30N 49°18' W 122°59'817.3
2017-Dec-11 07:00N 49°12' W 123°08'8517.9
2017-Dec-11 07:00N 49°18' W 123°00'1 1.8
2017-Dec-11 06:30N 49°18' W 122°59'92050.7
2017-Dec-11 06:30N 49°12' W 123°08'0 0.1
2017-Dec-11 06:00N 49°12' W 123°08'81215.1
2017-Dec-11 05:59N 49°17' W 122°58'0 0.1
2017-Dec-11 05:30N 49°17' W 122°58'87620.8
2017-Dec-11 05:30N 49°12' W 123°08'1 1.8
2017-Dec-11 05:00N 49°12' W 123°07'8322.1
2017-Dec-11 04:59N 49°17' W 122°58'0 0.0
2017-Dec-11 04:30N 49°17' W 122°58'6890.8
2017-Dec-11 04:30N 49°12' W 123°00'611.6
2017-Dec-11 03:59N 49°17' W 122°58'6251.7
2017-Dec-11 03:58N 49°12' W 122°54'0 0.9
2017-Dec-11 03:30N 49°12' W 122°54'61223.1
2017-Dec-11 03:30N 49°17' W 122°58'0 0.0
2017-Dec-11 03:00N 49°17' W 122°58'6134.6
2017-Dec-11 02:58N 49°12' W 122°57'612.6
2017-Dec-11 02:30N 49°17' W 122°58'65631.9
2017-Dec-11 02:30N 49°11' W 122°60'3 5.5
2017-Dec-11 02:00N 49°12' W 123°04'6143.6
2017-Dec-11 01:58N 49°17' W 122°58'0 0.0
2017-Dec-11 01:30N 49°17' W 122°58'86084.1
2017-Dec-11 01:30N 49°12' W 123°08'816.8
2017-Dec-11 01:00N 49°17' W 122°58'102651.8
2017-Dec-11 01:00N 49°13' W 123°12'3 6.0
2017-Dec-11 00:30N 49°15' W 123°15'113387.4
2017-Dec-11 00:30N 49°18' W 122°59'1326.6
2017-Dec-11 00:00N 49°16' W 123°18'161012.4
2017-Dec-11 00:00N 49°17' W 122°54'1837.6
2017-Dec-10 23:30N 49°17' W 123°22'173636.8
2017-Dec-10 23:30N 49°18' W 122°56'2 3.1
2017-Dec-10 23:00N 49°17' W 122°58'182790.5
2017-Dec-10 23:00N 49°18' W 123°26'1836.1
2017-Dec-10 22:30N 49°17' W 122°58'19170.1
2017-Dec-10 22:23N 49°21' W 123°26'1948.4
2017-Dec-10 22:00N 49°17' W 122°58'19148.4
2017-Dec-10 21:53N 49°24' W 123°25'2 4.9
2017-Dec-10 21:30N 49°26' W 123°27'202077.5
2017-Dec-10 21:30N 49°17' W 122°58'0 0.0
2017-Dec-10 21:00N 49°17' W 122°58'225635.3
2017-Dec-10 21:00N 49°28' W 123°28'3 6.7
2017-Dec-10 20:30N 49°31' W 123°28'2412270.2
2017-Dec-10 20:30N 49°17' W 122°58'0 0.0
2017-Dec-10 20:00N 49°17' W 122°58'24497.9
2017-Dec-10 19:57N 49°32' W 123°29'0 0.7
2017-Dec-10 19:30N 49°31' W 123°29'245317.1
2017-Dec-10 19:30N 49°18' W 122°59'3 6.7
2017-Dec-10 19:00N 49°17' W 122°54'263974.3
2017-Dec-10 19:00N 49°31' W 123°29'2 3.6
2017-Dec-10 18:30N 49°29' W 123°28'232397.6
2017-Dec-10 18:30N 49°18' W 122°57'2245.0
2017-Dec-10 18:00N 49°27' W 123°28'2112703.6
2017-Dec-10 18:00N 49°17' W 122°58'1938.4
2017-Dec-10 17:30N 49°25' W 123°26'194626.0
2017-Dec-10 17:30N 49°17' W 122°58'1937.8
2017-Dec-10 17:00N 49°22' W 123°26'1913435.2
2017-Dec-10 17:00N 49°17' W 122°58'1836.2
2017-Dec-10 16:30N 49°20' W 123°26'184970.8
2017-Dec-10 16:30N 49°17' W 122°58'1631.5
2017-Dec-10 16:00N 49°18' W 123°22'164020.0
2017-Dec-10 16:00N 49°17' W 122°58'1427.1
2017-Dec-10 15:30N 49°17' W 123°19'148112.2
2017-Dec-10 15:30N 49°17' W 122°58'1223.9
2017-Dec-10 15:00N 49°15' W 123°16'12951.4
2017-Dec-10 15:00N 49°17' W 122°58'1122.1
2017-Dec-10 14:30N 49°14' W 123°15'111096.5
2017-Dec-10 14:29N 49°17' W 122°58'1020.9
2017-Dec-10 14:00N 49°13' W 123°13'107264.9
2017-Dec-10 14:00N 49°17' W 122°58'0 0.0
2017-Dec-10 13:29N 49°17' W 122°58'91327.4
2017-Dec-10 13:29N 49°13' W 123°10'918.6
2017-Dec-10 13:00N 49°17' W 122°58'9477.6
2017-Dec-10 12:59N 49°12' W 123°09'917.9
2017-Dec-10 12:30N 49°17' W 122°58'9190.9
2017-Dec-10 12:27N 49°12' W 123°09'919.1
2017-Dec-10 12:00N 49°17' W 122°58'9127.2
2017-Dec-10 11:56N 49°12' W 123°09'0 0.0
2017-Dec-10 11:30N 49°12' W 123°09'92086.7
2017-Dec-10 11:30N 49°17' W 122°58'0 0.0
2017-Dec-10 11:00N 49°17' W 122°58'9187.4
2017-Dec-10 10:57N 49°12' W 123°09'918.9
2017-Dec-10 10:30N 49°17' W 122°58'9711.7
2017-Dec-10 10:29N 49°12' W 123°09'0 0.0
2017-Dec-10 10:00N 49°12' W 123°09'9920.6
2017-Dec-10 10:00N 49°17' W 122°58'0 0.0
2017-Dec-10 09:30N 49°17' W 122°58'936.2
2017-Dec-10 09:15N 49°12' W 123°09'0 0.2
2017-Dec-10 09:01N 49°12' W 123°09'91642.8
2017-Dec-10 09:00N 49°17' W 122°58'0 0.0
2017-Dec-10 08:30N 49°17' W 122°58'91945.2
2017-Dec-10 08:30N 49°12' W 123°09'2 4.0
2017-Dec-10 08:00N 49°12' W 123°06'8231.8
2017-Dec-10 07:59N 49°17' W 122°58'1 2.8
2017-Dec-10 07:30N 49°18' W 123°00'6860.5
2017-Dec-10 07:30N 49°12' W 123°03'4 7.5
2017-Dec-10 07:00N 49°11' W 122°58'7438.5
2017-Dec-10 07:00N 49°18' W 123°02'714.1
2017-Dec-10 06:30N 49°11' W 122°58'64594.4
2017-Dec-10 06:30N 49°18' W 122°59'1 1.4
2017-Dec-10 06:00N 49°18' W 122°60'7714.7
2017-Dec-10 06:00N 49°11' W 122°58'713.2
2017-Dec-10 05:30N 49°18' W 123°00'7177.9
2017-Dec-10 05:28N 49°11' W 122°58'714.5
2017-Dec-10 05:00N 49°18' W 122°59'7960.7
2017-Dec-10 05:00N 49°11' W 122°58'612.8
2017-Dec-10 04:30N 49°17' W 122°58'71000.1
2017-Dec-10 04:30N 49°11' W 122°59'713.5
2017-Dec-10 04:00N 49°17' W 122°58'61513.7
2017-Dec-10 04:00N 49°12' W 123°01'611.7
2017-Dec-10 03:30N 49°17' W 122°58'76032.0
2017-Dec-10 03:30N 49°12' W 123°05'713.5
2017-Dec-10 03:00N 49°17' W 122°58'81261.6
2017-Dec-10 03:00N 49°12' W 123°08'817.2
2017-Dec-10 02:30N 49°17' W 122°58'1034260.3
2017-Dec-10 02:30N 49°13' W 123°11'1018.8
2017-Dec-10 02:00N 49°17' W 122°58'1110084.7
2017-Dec-10 02:00N 49°15' W 123°15'2 4.2
2017-Dec-10 01:30N 49°16' W 123°18'111434.6
2017-Dec-10 01:30N 49°18' W 123°01'1327.3
2017-Dec-10 01:00N 49°17' W 123°22'117777.0
2017-Dec-10 01:00N 49°17' W 123°05'1 2.9
2017-Dec-10 00:30N 49°19' W 123°06'1315793.9
2017-Dec-10 00:30N 49°19' W 123°26'1326.9
2017-Dec-10 00:00N 49°18' W 123°06'172507.3
2017-Dec-10 00:00N 49°21' W 123°31'2 4.0
2017-Dec-09 23:30N 49°19' W 123°30'163465.5
2017-Dec-09 23:30N 49°17' W 123°05'1 1.2
2017-Dec-09 23:00N 49°18' W 123°06'14587.6
2017-Dec-09 22:59N 49°15' W 123°27'5 9.5
2017-Dec-09 22:30N 49°11' W 123°23'139171.2
2017-Dec-09 22:30N 49°18' W 123°07'0 0.0
2017-Dec-09 22:01N 49°18' W 123°07'1384.8
2017-Dec-09 21:51N 49°07' W 123°17'410.2
2017-Dec-09 21:31N 49°07' W 123°12'112154.9
2017-Dec-09 21:30N 49°18' W 123°07'1021.0
2017-Dec-09 21:00N 49°07' W 123°04'102344.9
2017-Dec-09 21:00N 49°18' W 123°07'0 0.0
2017-Dec-09 20:30N 49°18' W 123°07'101478.3
2017-Dec-09 20:30N 49°09' W 122°60'0 0.4
2017-Dec-09 20:00N 49°09' W 122°60'105917.9
2017-Dec-09 20:00N 49°18' W 123°07'0 0.1
2017-Dec-09 19:30N 49°18' W 123°07'101052.8
2017-Dec-09 19:30N 49°09' W 122°59'918.8
2017-Dec-09 19:00N 49°18' W 123°05'92221.3
2017-Dec-09 19:00N 49°11' W 122°55'2 3.3
2017-Dec-09 18:30N 49°11' W 122°58'74817.0
2017-Dec-09 18:30N 49°18' W 123°01'611.7
2017-Dec-09 18:00N 49°12' W 123°04'61507.0
2017-Dec-09 18:00N 49°17' W 122°58'0 0.0
2017-Dec-09 17:30N 49°17' W 122°58'76069.2
2017-Dec-09 17:30N 49°12' W 123°05'2 3.7
2017-Dec-09 17:00N 49°12' W 123°08'81989.3
2017-Dec-09 17:00N 49°17' W 122°58'0 0.0
2017-Dec-09 16:30N 49°17' W 122°58'9344.5
2017-Dec-09 16:28N 49°13' W 123°10'3 6.1
2017-Dec-09 16:00N 49°12' W 123°06'81808.0
2017-Dec-09 16:00N 49°17' W 122°58'612.0
2017-Dec-09 15:30N 49°12' W 123°01'6387.6
2017-Dec-09 15:30N 49°17' W 122°58'0 0.0
2017-Dec-09 15:00N 49°17' W 122°58'6350.5
2017-Dec-09 14:59N 49°12' W 122°55'612.7
2017-Dec-09 14:30N 49°17' W 122°58'85814.8
2017-Dec-09 14:30N 49°09' W 122°59'1 2.0
2017-Dec-09 14:00N 49°09' W 123°00'81248.2
2017-Dec-09 14:00N 49°17' W 122°58'1020.7
2017-Dec-09 13:30N 49°08' W 123°04'102282.1
2017-Dec-09 13:30N 49°17' W 122°58'0 0.6
2017-Dec-09 13:00N 49°18' W 122°59'13864.2
2017-Dec-09 12:59N 49°07' W 123°09'1225.4
2017-Dec-09 12:30N 49°18' W 123°00'13553.4
2017-Dec-09 12:28N 49°08' W 123°14'1327.8
2017-Dec-09 12:00N 49°18' W 123°01'16333.1
2017-Dec-09 11:57N 49°06' W 123°18'1533.0
2017-Dec-09 11:30N 49°18' W 123°04'1980.4
2017-Dec-09 11:16N 49°01' W 123°18'1966.1
2017-Dec-09 10:59N 49°19' W 123°05'22508.3
2017-Dec-09 10:57N 48°59' W 123°17'2249.3
2017-Dec-09 10:30N 49°19' W 123°05'251422.1
2017-Dec-09 10:29N 48°55' W 123°18'2552.4
2017-Dec-09 10:00N 49°19' W 123°05'291912.5
2017-Dec-09 09:59N 48°52' W 123°20'2959.2
2017-Dec-09 09:30N 49°19' W 123°05'311179.2
2017-Dec-09 09:29N 48°49' W 123°21'3166.4
2017-Dec-09 09:00N 49°19' W 123°05'0 0.0
2017-Dec-09 08:30N 49°19' W 123°05'0 0.0
2017-Dec-09 08:00N 49°19' W 123°05'42445.9
2017-Dec-09 07:55N 48°37' W 123°21'3 6.9
2017-Dec-09 07:30N 48°35' W 123°19'445887.1
2017-Dec-09 07:30N 49°18' W 123°05'4896.5
2017-Dec-09 07:00N 48°31' W 123°18'4728169.5
2017-Dec-09 07:00N 49°18' W 123°05'50100.5
2017-Dec-09 06:30N 48°28' W 123°16'513306.5
2017-Dec-09 06:30N 49°18' W 123°02'54110.5
2017-Dec-09 06:00N 48°25' W 123°17'543521.4
2017-Dec-09 06:00N 49°17' W 122°58'56114.9
2017-Dec-09 05:30N 48°24' W 123°21'5613346.5
2017-Dec-09 05:30N 49°18' W 123°00'54108.9
2017-Dec-09 05:00N 48°26' W 123°22'544122.3
2017-Dec-09 05:00N 49°18' W 123°01'53109.8
2017-Dec-09 04:30N 48°26' W 123°22'545503.2
2017-Dec-09 04:30N 49°18' W 123°00'1 2.4
2017-Dec-09 04:00N 49°18' W 122°59'551906.1
2017-Dec-09 03:59N 48°25' W 123°22'54114.0
2017-Dec-09 03:30N 49°17' W 122°58'54914.8
2017-Dec-09 03:26N 48°25' W 123°22'54124.9
2017-Dec-09 03:00N 49°17' W 122°58'541483.1
2017-Dec-09 02:58N 48°25' W 123°22'1 3.2
2017-Dec-09 02:30N 48°24' W 123°23'5611823.8
2017-Dec-09 02:30N 49°17' W 122°58'54108.7
2017-Dec-09 02:00N 48°25' W 123°17'542584.2
2017-Dec-09 01:59N 49°17' W 122°58'49103.0
2017-Dec-09 01:30N 48°30' W 123°17'492338.9
2017-Dec-09 01:29N 49°17' W 122°58'0 0.0
2017-Dec-09 01:00N 49°17' W 122°58'44976.6
2017-Dec-09 00:57N 48°35' W 123°19'4499.1
2017-Dec-09 00:30N 49°17' W 122°58'38132.8
2017-Dec-09 00:13N 48°43' W 123°21'38171.6
2017-Dec-09 00:00N 49°18' W 122°59'365597.1
2017-Dec-09 00:00N 48°45' W 123°21'3571.8
2017-Dec-08 23:30N 49°18' W 123°01'3228629.8
2017-Dec-08 23:30N 48°50' W 123°25'510.7
2017-Dec-08 23:00N 48°54' W 123°29'2817024.6
2017-Dec-08 23:00N 49°19' W 123°06'0 0.6
2017-Dec-08 22:30N 49°19' W 123°06'1 2.8
2017-Dec-08 22:00N 49°17' W 123°05'1 2.9
2017-Dec-08 21:30N 49°19' W 123°06'0 0.4
2017-Dec-08 21:00N 49°18' W 123°06'1 2.4
2017-Dec-08 20:30N 49°17' W 123°05'2 3.2
2017-Dec-08 20:00N 49°18' W 123°03'3 5.6
2017-Dec-08 19:30N 49°17' W 122°58'1 1.6
2017-Dec-08 19:00N 49°18' W 122°57'2 4.5
2017-Dec-08 18:30N 49°17' W 122°54'2 3.2
2017-Dec-08 18:00N 49°18' W 122°56'1 2.9
2017-Dec-08 17:30N 49°18' W 122°58'0 0.1
2017-Dec-08 17:00N 49°17' W 122°58'0 0.1
2017-Dec-08 16:30N 49°18' W 122°58'0 0.1
2017-Dec-08 16:00N 49°17' W 122°58'0 0.0
2017-Dec-08 15:30N 49°17' W 122°58'0 0.0
2017-Dec-08 15:00N 49°17' W 122°58'0 0.0
2017-Dec-08 14:30N 49°17' W 122°58'0 0.0
2017-Dec-08 14:00N 49°17' W 122°58'0 0.0
2017-Dec-08 13:30N 49°17' W 122°58'0 0.0
2017-Dec-08 13:00N 49°17' W 122°58'0 0.0
2017-Dec-08 12:30N 49°17' W 122°58'0 0.0
2017-Dec-08 12:00N 49°17' W 122°58'2774.4
2017-Dec-08 11:38N 49°24' W 123°39'27200.9
2017-Dec-08 11:30N 49°18' W 122°59'261721.2
2017-Dec-08 11:29N 49°24' W 123°38'2551.0
2017-Dec-08 11:00N 49°18' W 123°01'22155.3
2017-Dec-08 10:52N 49°22' W 123°34'2057.2
2017-Dec-08 10:30N 49°18' W 123°03'19710.3
2017-Dec-08 10:29N 49°21' W 123°31'2041.1
2017-Dec-08 10:00N 49°18' W 123°01'184295.2
2017-Dec-08 09:59N 49°20' W 123°28'3 5.9
2017-Dec-08 09:30N 49°19' W 123°24'178751.0
2017-Dec-08 09:30N 49°17' W 122°58'1529.7
2017-Dec-08 09:00N 49°18' W 123°21'153531.4
2017-Dec-08 09:00N 49°17' W 122°58'0 0.0
2017-Dec-08 08:30N 49°17' W 122°58'133286.2
2017-Dec-08 08:30N 49°16' W 123°18'3 6.6
2017-Dec-08 08:00N 49°14' W 123°14'112437.7
2017-Dec-08 08:00N 49°17' W 122°58'0 0.0
2017-Dec-08 07:30N 49°17' W 122°58'951.8
2017-Dec-08 07:20N 49°12' W 123°09'925.6
2017-Dec-08 07:00N 49°17' W 122°58'75268.4
2017-Dec-08 07:00N 49°12' W 123°06'0 0.6
2017-Dec-08 06:30N 49°12' W 123°06'75105.2
2017-Dec-08 06:30N 49°17' W 122°58'0 0.0
2017-Dec-08 06:00N 49°17' W 122°58'87576.5
2017-Dec-08 06:00N 49°12' W 123°08'816.9
2017-Dec-08 05:30N 49°17' W 122°58'8921.6
2017-Dec-08 05:30N 49°12' W 123°08'817.0
2017-Dec-08 05:00N 49°17' W 122°58'87603.1
2017-Dec-08 05:00N 49°12' W 123°08'817.1
2017-Dec-08 04:30N 49°17' W 122°58'86061.2
2017-Dec-08 04:30N 49°12' W 123°08'0 0.0
2017-Dec-08 04:00N 49°12' W 123°08'82028.1
2017-Dec-08 04:00N 49°18' W 122°59'816.5
2017-Dec-08 03:30N 49°12' W 123°08'83883.1
2017-Dec-08 03:30N 49°18' W 123°01'612.1
2017-Dec-08 03:00N 49°12' W 123°05'73950.7
2017-Dec-08 03:00N 49°17' W 122°58'0 0.0
2017-Dec-08 02:30N 49°17' W 122°58'61641.9
2017-Dec-08 02:30N 49°12' W 123°04'612.8
2017-Dec-08 02:00N 49°17' W 122°58'76743.4
2017-Dec-08 02:00N 49°12' W 123°06'0 0.0
2017-Dec-08 01:30N 49°12' W 123°06'7313.5
2017-Dec-08 01:29N 49°17' W 122°58'715.8
2017-Dec-08 01:00N 49°12' W 123°06'71586.7
2017-Dec-08 01:00N 49°17' W 122°58'715.3
2017-Dec-08 00:30N 49°12' W 123°06'8485.6
2017-Dec-08 00:30N 49°17' W 122°58'815.4
2017-Dec-08 00:00N 49°12' W 123°06'10372.1
2017-Dec-07 23:59N 49°17' W 122°54'3 6.1
2017-Dec-07 23:30N 49°18' W 122°58'82176.1
2017-Dec-07 23:30N 49°12' W 123°06'713.8
2017-Dec-07 23:00N 49°18' W 123°01'71644.2
2017-Dec-07 23:00N 49°12' W 123°06'0 0.0
2017-Dec-07 22:30N 49°12' W 123°06'7499.8
2017-Dec-07 22:29N 49°17' W 122°58'715.6
2017-Dec-07 22:00N 49°12' W 123°06'8752.4
2017-Dec-07 22:00N 49°18' W 122°58'0 0.0
2017-Dec-07 21:30N 49°18' W 122°58'6918.7
2017-Dec-07 21:30N 49°12' W 123°01'611.9
2017-Dec-07 21:00N 49°18' W 122°58'622.8
2017-Dec-07 20:45N 49°12' W 122°57'623.5
2017-Dec-07 20:30N 49°18' W 122°58'639.7
2017-Dec-07 20:21N 49°12' W 122°55'617.6
2017-Dec-07 20:00N 49°18' W 122°58'696.9
2017-Dec-07 19:56N 49°12' W 122°54'1 2.6
2017-Dec-07 19:30N 49°13' W 122°53'51232.6
2017-Dec-07 19:30N 49°18' W 122°58'3 6.0
2017-Dec-07 19:00N 49°17' W 122°54'630.0
2017-Dec-07 18:48N 49°12' W 122°57'2 6.0
2017-Dec-07 18:30N 49°11' W 122°59'71490.6
2017-Dec-07 18:30N 49°18' W 122°56'2 3.1
2017-Dec-07 18:00N 49°18' W 122°58'632.9
2017-Dec-07 17:49N 49°12' W 122°55'1 4.2
2017-Dec-07 17:30N 49°13' W 122°54'6658.4
2017-Dec-07 17:30N 49°18' W 122°59'2 4.3
2017-Dec-07 17:00N 49°18' W 123°02'81932.0
2017-Dec-07 17:00N 49°13' W 122°54'816.9
2017-Dec-07 16:30N 49°18' W 123°04'8876.5
2017-Dec-07 16:30N 49°13' W 122°54'3 5.9
2017-Dec-07 16:00N 49°11' W 122°58'7363.1
2017-Dec-07 15:59N 49°18' W 123°01'714.0
2017-Dec-07 15:30N 49°11' W 122°60'7417.9
2017-Dec-07 15:29N 49°18' W 122°58'612.9
2017-Dec-07 15:00N 49°12' W 123°04'63838.9
2017-Dec-07 15:00N 49°17' W 122°58'816.3
2017-Dec-07 14:30N 49°12' W 123°07'8841.5
2017-Dec-07 14:29N 49°18' W 122°58'918.5
2017-Dec-07 14:00N 49°13' W 123°09'9489.7
2017-Dec-07 13:59N 49°18' W 122°58'1122.5
2017-Dec-07 13:30N 49°14' W 123°13'112368.9
2017-Dec-07 13:30N 49°17' W 122°58'1325.7
2017-Dec-07 13:00N 49°16' W 123°18'131227.1
2017-Dec-07 13:00N 49°17' W 122°58'1632.6
2017-Dec-07 12:30N 49°17' W 123°23'161597.6
2017-Dec-07 12:30N 49°17' W 122°58'0 0.0
2017-Dec-07 12:00N 49°17' W 122°58'181419.2
2017-Dec-07 11:59N 49°20' W 123°26'1837.1
2017-Dec-07 11:30N 49°18' W 122°58'19125.3
2017-Dec-07 11:21N 49°24' W 123°25'1749.9
2017-Dec-07 11:00N 49°18' W 123°01'20317.4
2017-Dec-07 10:56N 49°27' W 123°28'2147.6
2017-Dec-07 10:30N 49°18' W 122°59'23498.8
2017-Dec-07 10:28N 49°31' W 123°28'2350.4
2017-Dec-07 10:00N 49°18' W 122°59'241311.1
2017-Dec-07 09:59N 49°31' W 123°29'0 0.1
2017-Dec-07 09:30N 49°31' W 123°29'2316680.1
2017-Dec-07 09:30N 49°18' W 123°00'2346.1
2017-Dec-07 09:00N 49°31' W 123°28'235806.5
2017-Dec-07 09:00N 49°18' W 123°00'2041.0
2017-Dec-07 08:30N 49°27' W 123°28'211757.1
2017-Dec-07 08:30N 49°17' W 122°58'0 0.0
2017-Dec-07 08:00N 49°17' W 122°58'1949.7
2017-Dec-07 07:37N 49°21' W 123°26'19157.9
2017-Dec-07 07:30N 49°17' W 122°58'19902.2
2017-Dec-07 07:29N 49°20' W 123°27'4 7.3
2017-Dec-07 07:00N 49°18' W 123°22'162434.2
2017-Dec-07 07:00N 49°17' W 122°58'1326.0
2017-Dec-07 06:31N 49°16' W 123°18'132387.2
2017-Dec-07 06:30N 49°17' W 122°58'1121.6
2017-Dec-07 06:01N 49°14' W 123°14'112141.2
2017-Dec-07 06:00N 49°17' W 122°58'918.3
2017-Dec-07 05:30N 49°13' W 123°11'9719.9
2017-Dec-07 05:29N 49°17' W 122°58'0 0.0
2017-Dec-07 05:00N 49°17' W 122°58'8869.3
2017-Dec-07 05:00N 49°12' W 123°08'817.2
2017-Dec-07 04:30N 49°17' W 122°58'76629.5
2017-Dec-07 04:30N 49°12' W 123°06'1 1.8
2017-Dec-07 04:00N 49°12' W 123°08'8343.3
2017-Dec-07 03:59N 49°17' W 122°58'817.6
2017-Dec-07 03:30N 49°12' W 123°08'81174.6
2017-Dec-07 03:30N 49°17' W 122°58'817.5
2017-Dec-07 03:00N 49°12' W 123°08'8265.7
2017-Dec-07 02:59N 49°17' W 122°58'817.9
2017-Dec-07 02:30N 49°12' W 123°08'81909.6
2017-Dec-07 02:30N 49°17' W 122°58'817.1
2017-Dec-07 02:00N 49°12' W 123°08'8535.8
2017-Dec-07 01:59N 49°17' W 122°58'817.5
2017-Dec-07 01:30N 49°12' W 123°08'8318.1
2017-Dec-07 01:29N 49°17' W 122°58'817.8
2017-Dec-07 01:00N 49°12' W 123°08'8114.4
2017-Dec-07 00:56N 49°17' W 122°58'920.2
2017-Dec-07 00:29N 49°13' W 123°10'9565.0
2017-Dec-07 00:29N 49°17' W 122°58'1123.8
2017-Dec-07 00:00N 49°15' W 123°15'11118.1
2017-Dec-06 23:54N 49°17' W 122°58'1434.0
2017-Dec-06 23:29N 49°12' W 123°19'14147.4
2017-Dec-06 23:24N 49°17' W 122°58'0 0.0
2017-Dec-06 23:00N 49°17' W 122°58'18608.7
2017-Dec-06 22:59N 49°07' W 123°21'4 9.0
2017-Dec-06 22:30N 49°03' W 123°19'202966.7
2017-Dec-06 22:30N 49°17' W 122°58'0 0.0
2017-Dec-06 22:00N 49°17' W 122°58'24179.5
2017-Dec-06 21:51N 48°57' W 123°17'3 9.8
2017-Dec-06 21:31N 48°53' W 123°18'272720.8
2017-Dec-06 21:30N 49°18' W 122°59'3163.7
2017-Dec-06 21:00N 48°50' W 123°21'316901.2
2017-Dec-06 21:00N 49°18' W 123°00'  
2017-Dec-04 10:30N 49°11' W 123°26'3 5.7
2017-Dec-04 10:00N 49°09' W 123°23'3 5.8
2017-Dec-04 09:29N 49°07' W 123°20'4 7.6
2017-Dec-04 08:58N 49°08' W 123°14'1467.9
2017-Dec-04 08:46N 49°17' W 122°58'0 0.2
2017-Dec-04 08:30N 49°17' W 122°58'121859.2
2017-Dec-04 08:30N 49°07' W 123°07'611.5
2017-Dec-04 08:00N 49°09' W 122°60'84934.7
2017-Dec-04 08:00N 49°17' W 122°58'611.7
2017-Dec-04 07:30N 49°13' W 122°53'63526.1
2017-Dec-04 07:30N 49°17' W 122°58'0 0.0
2017-Dec-04 07:00N 49°17' W 122°58'10490.1
2017-Dec-04 06:58N 49°13' W 122°45'1021.3
2017-Dec-04 06:31N 49°18' W 122°58'1490.5
2017-Dec-04 06:21N 49°12' W 122°40'1438.7
2017-Dec-04 06:00N 49°17' W 122°58'112953.8
2017-Dec-04 06:00N 49°12' W 122°43'1122.6
2017-Dec-04 05:30N 49°17' W 122°58'8938.7
2017-Dec-04 05:29N 49°13' W 122°48'3 6.0
2017-Dec-04 05:01N 49°13' W 122°52'6428.4
2017-Dec-04 05:00N 49°17' W 122°58'511.1
2017-Dec-04 04:30N 49°13' W 122°53'5726.3
2017-Dec-04 04:30N 49°17' W 122°58'0 0.0
2017-Dec-04 04:00N 49°17' W 122°58'652.3
2017-Dec-04 03:54N 49°12' W 122°57'2 5.2
2017-Dec-04 03:30N 49°11' W 123°00'63135.9
2017-Dec-04 03:30N 49°17' W 122°58'0 0.0
2017-Dec-04 03:01N 49°17' W 122°58'0 0.0
2017-Dec-04 02:30N 49°17' W 122°58'0 0.0
2017-Dec-04 02:00N 49°17' W 122°58'0 0.0
2017-Dec-04 01:29N 49°17' W 122°58'0 0.0
2017-Dec-04 01:00N 49°17' W 122°58'0 0.0
2017-Dec-04 00:30N 49°17' W 122°58'0 0.0
2017-Dec-04 00:01N 49°17' W 122°58'0 0.0
2017-Dec-03 23:30N 49°17' W 122°58'0 0.0
2017-Dec-03 22:59N 49°17' W 122°58'0 0.0
2017-Dec-03 22:30N 49°17' W 122°58'0 0.0
2017-Dec-03 22:00N 49°17' W 122°58'669.1
2017-Dec-03 21:55N 49°12' W 122°55'615.3
2017-Dec-03 21:30N 49°17' W 122°58'81263.4
2017-Dec-03 21:30N 49°09' W 122°58'816.4
2017-Dec-03 21:00N 49°17' W 122°58'102788.9
2017-Dec-03 21:00N 49°08' W 123°04'1020.3
2017-Dec-03 20:30N 49°17' W 122°58'111260.6
2017-Dec-03 20:30N 49°07' W 123°05'1122.5
2017-Dec-03 20:00N 49°17' W 122°58'11138.6
2017-Dec-03 19:55N 49°07' W 123°05'1126.7
2017-Dec-03 19:30N 49°17' W 122°58'111260.0
2017-Dec-03 19:29N 49°07' W 123°05'1326.1
2017-Dec-03 19:00N 49°17' W 122°54'13624.9
2017-Dec-03 18:59N 49°07' W 123°05'0 0.1
2017-Dec-03 18:30N 49°07' W 123°05'125453.2
2017-Dec-03 18:30N 49°18' W 122°56'1 2.9
2017-Dec-03 18:00N 49°17' W 122°58'1140536.1
2017-Dec-03 18:00N 49°07' W 123°06'1122.5
2017-Dec-03 17:30N 49°17' W 122°58'92609.0
2017-Dec-03 17:30N 49°08' W 123°03'919.0
2017-Dec-03 17:00N 49°17' W 122°58'82635.3
2017-Dec-03 17:00N 49°09' W 122°57'816.2
2017-Dec-03 16:30N 49°17' W 122°58'6113.1
2017-Dec-03 16:27N 49°12' W 122°54'1 3.3
2017-Dec-03 16:00N 49°13' W 122°53'52470.7
2017-Dec-03 16:00N 49°17' W 122°58'0 0.0
2017-Dec-03 15:30N 49°17' W 122°58'82544.5
2017-Dec-03 15:30N 49°13' W 122°47'817.0
2017-Dec-03 15:00N 49°17' W 122°58'1463.9
2017-Dec-03 14:47N 49°12' W 122°40'1446.4
2017-Dec-03 14:30N 49°17' W 122°58'13941.3
2017-Dec-03 14:29N 49°11' W 122°40'1327.8
2017-Dec-03 14:00N 49°17' W 122°58'121405.8
2017-Dec-03 14:00N 49°11' W 122°43'1223.8
2017-Dec-03 13:30N 49°17' W 122°58'10512.7
2017-Dec-03 13:29N 49°13' W 122°45'1021.1
2017-Dec-03 13:00N 49°17' W 122°58'8329.4
2017-Dec-03 12:59N 49°13' W 122°49'815.7
2017-Dec-03 12:30N 49°17' W 122°58'6631.3
2017-Dec-03 12:30N 49°13' W 122°53'1 2.9
2017-Dec-03 12:00N 49°12' W 122°55'61342.1
2017-Dec-03 12:00N 49°17' W 122°58'715.0
2017-Dec-03 11:30N 49°10' W 122°56'73812.2
2017-Dec-03 11:30N 49°17' W 122°58'816.1
2017-Dec-03 11:00N 49°09' W 122°58'81071.8
2017-Dec-03 11:00N 49°17' W 122°58'917.5
2017-Dec-03 10:30N 49°09' W 123°01'93437.9
2017-Dec-03 10:30N 49°17' W 122°58'0 0.0
2017-Dec-03 10:00N 49°17' W 122°58'101197.8
2017-Dec-03 10:00N 49°08' W 123°04'1020.8
2017-Dec-03 09:30N 49°17' W 122°58'121349.9
2017-Dec-03 09:29N 49°07' W 123°07'1224.4
2017-Dec-03 09:00N 49°17' W 122°58'1323576.4
2017-Dec-03 09:00N 49°07' W 123°10'1326.5
2017-Dec-03 08:30N 49°17' W 122°58'1324293.6
2017-Dec-03 08:30N 49°07' W 123°12'1427.0
2017-Dec-03 08:00N 49°17' W 122°58'15854.8
2017-Dec-03 07:59N 49°07' W 123°15'1530.1
2017-Dec-03 07:30N 49°18' W 122°59'16557.5
2017-Dec-03 07:29N 49°07' W 123°17'1532.5
2017-Dec-03 07:01N 49°18' W 123°00'16411.1
2017-Dec-03 06:58N 49°06' W 123°18'1635.2
2017-Dec-03 06:30N 49°18' W 123°00'15366.1
2017-Dec-03 06:28N 49°08' W 123°19'1635.2
2017-Dec-03 06:00N 49°17' W 122°58'1518034.2
2017-Dec-03 06:00N 49°11' W 123°19'1530.3
2017-Dec-03 05:30N 49°17' W 122°58'1425303.1
2017-Dec-03 05:30N 49°14' W 123°19'1428.2
2017-Dec-03 05:00N 49°17' W 122°58'142330.0
2017-Dec-03 05:00N 49°15' W 123°20'1428.5
2017-Dec-03 04:30N 49°17' W 122°58'0 0.0
2017-Dec-03 04:00N 49°17' W 122°58'15104.1
2017-Dec-03 03:52N 49°16' W 123°22'1542.8
2017-Dec-03 03:30N 49°17' W 122°58'0 0.0
2017-Dec-03 03:00N 49°17' W 122°58'0 0.0
2017-Dec-03 02:30N 49°17' W 122°58'0 0.0
2017-Dec-03 02:00N 49°17' W 122°58'0 0.0
2017-Dec-03 01:28N 49°17' W 122°58'0 0.0
2017-Dec-03 01:00N 49°17' W 122°58'0 0.0
2017-Dec-03 00:30N 49°17' W 122°58'0 0.0
2017-Dec-03 00:00N 49°17' W 122°58'2560.0
2017-Dec-02 23:35N 49°23' W 123°36'25303.3
2017-Dec-02 23:30N 49°17' W 122°58'0 0.0
2017-Dec-02 23:00N 49°17' W 122°58'1 1.7
2017-Dec-02 22:30N 49°18' W 122°57'2 4.4
2017-Dec-02 22:00N 49°17' W 122°54'2 4.7
2017-Dec-02 21:30N 49°18' W 122°57'1 1.5
2017-Dec-02 21:00N 49°17' W 122°58'0 0.0
2017-Dec-02 20:30N 49°17' W 122°58'0 0.0
2017-Dec-02 19:58N 49°17' W 122°58'0 0.0
2017-Dec-02 19:29N 49°17' W 122°58'0 0.2
2017-Dec-02 19:00N 49°17' W 122°58'0 0.2
2017-Dec-02 18:30N 49°17' W 122°58'3 6.1
2017-Dec-02 18:00N 49°17' W 122°54'2 3.1
2017-Dec-02 17:31N 49°18' W 122°56'1 2.9
2017-Dec-02 17:00N 49°17' W 122°58'0 0.0
2017-Dec-02 16:30N 49°17' W 122°58'0 0.0
2017-Dec-02 16:00N 49°17' W 122°58'0 0.0
2017-Dec-02 15:30N 49°17' W 122°58'0 0.0
2017-Dec-02 15:00N 49°17' W 122°58'0 0.0
2017-Dec-02 14:30N 49°17' W 122°58'0 0.0
2017-Dec-02 14:00N 49°17' W 122°58'0 0.0
2017-Dec-02 13:28N 49°17' W 122°58'2 4.7
2017-Dec-02 13:00N 49°18' W 123°02'2 4.4
2017-Dec-02 12:31N 49°18' W 123°05'21681.6
2017-Dec-02 12:29N 49°23' W 123°37'2349.3
2017-Dec-02 12:00N 49°18' W 123°02'206140.8
2017-Dec-02 12:00N 49°22' W 123°32'2346.1
2017-Dec-02 11:31N 49°17' W 122°58'192834.9
2017-Dec-02 11:30N 49°20' W 123°27'1937.7
2017-Dec-02 11:00N 49°17' W 122°58'151669.7
2017-Dec-02 10:59N 49°18' W 123°22'3 7.0
2017-Dec-02 10:30N 49°16' W 123°18'136585.4
2017-Dec-02 10:30N 49°17' W 122°58'0 0.0
2017-Dec-02 10:00N 49°17' W 122°58'11809.9
2017-Dec-02 10:00N 49°15' W 123°16'1123.7
2017-Dec-02 09:31N 49°17' W 122°58'0 0.0
2017-Dec-02 09:00N 49°17' W 122°58'113440.7
2017-Dec-02 09:00N 49°15' W 123°16'1123.2
2017-Dec-02 08:31N 49°17' W 122°58'1126.1
2017-Dec-02 08:04N 49°15' W 123°16'11172.0
2017-Dec-02 08:00N 49°17' W 122°58'113176.0
2017-Dec-02 08:00N 49°15' W 123°16'1123.2
2017-Dec-02 07:30N 49°17' W 122°58'1130.3
2017-Dec-02 07:08N 49°15' W 123°16'1085.2
2017-Dec-02 07:00N 49°18' W 123°00'0 0.4
2017-Dec-02 06:30N 49°17' W 123°00'1056.2
2017-Dec-02 06:19N 49°15' W 123°16'0 0.0
2017-Dec-02 06:00N 49°15' W 123°16'116830.2
2017-Dec-02 06:00N 49°18' W 122°59'0 0.4
2017-Dec-02 05:30N 49°17' W 122°58'11959.9
2017-Dec-02 05:30N 49°15' W 123°16'1123.5
2017-Dec-02 05:00N 49°17' W 122°58'121811.7
2017-Dec-02 05:00N 49°15' W 123°16'2 4.7
2017-Dec-02 04:30N 49°14' W 123°19'141702.3
2017-Dec-02 04:30N 49°17' W 122°58'0 0.0
2017-Dec-02 04:00N 49°17' W 122°58'16133.6
2017-Dec-02 03:53N 49°08' W 123°19'1643.6
2017-Dec-02 03:30N 49°17' W 122°58'14175.9
2017-Dec-02 03:25N 49°08' W 123°15'511.8
2017-Dec-02 03:00N 49°07' W 123°07'124912.6
2017-Dec-02 03:00N 49°17' W 122°58'0 0.0
2017-Dec-02 02:30N 49°17' W 122°58'101597.6
2017-Dec-02 02:30N 49°08' W 123°03'1020.7
2017-Dec-02 02:00N 49°17' W 122°58'8189.3
2017-Dec-02 01:58N 49°09' W 122°57'817.6
2017-Dec-02 01:30N 49°17' W 122°58'6645.2
2017-Dec-02 01:30N 49°12' W 122°57'4 7.2
2017-Dec-02 01:00N 49°12' W 123°03'63032.4
2017-Dec-02 01:00N 49°17' W 122°58'0 0.0
2017-Dec-02 00:30N 49°17' W 122°58'78938.4
2017-Dec-02 00:30N 49°12' W 123°06'715.1
2017-Dec-02 00:00N 49°17' W 122°58'713399.5
2017-Dec-02 00:00N 49°12' W 123°06'714.9
2017-Dec-01 23:30N 49°17' W 122°58'71165.9
2017-Dec-01 23:30N 49°12' W 123°06'0 0.0
2017-Dec-01 23:00N 49°12' W 123°06'73830.7
2017-Dec-01 23:00N 49°17' W 122°58'0 0.0
2017-Dec-01 22:30N 49°17' W 122°58'71914.2
2017-Dec-01 22:30N 49°12' W 123°06'1 1.9
2017-Dec-01 22:00N 49°12' W 123°08'81693.4
2017-Dec-01 22:00N 49°17' W 122°58'0 0.0
2017-Dec-01 21:30N 49°17' W 122°58'8481.3
2017-Dec-01 21:29N 49°12' W 123°08'817.4
2017-Dec-01 21:00N 49°17' W 122°58'828950.6
2017-Dec-01 21:00N 49°12' W 123°08'816.1
2017-Dec-01 20:30N 49°17' W 122°58'71165.9
2017-Dec-01 20:30N 49°12' W 123°06'0 0.0
2017-Dec-01 20:00N 49°12' W 123°06'7583.3
2017-Dec-01 20:00N 49°17' W 122°58'0 0.0
2017-Dec-01 19:30N 49°17' W 122°58'78943.7
2017-Dec-01 19:30N 49°12' W 123°06'715.1
2017-Dec-01 19:00N 49°17' W 122°58'72446.3
2017-Dec-01 19:00N 49°12' W 123°06'715.1
2017-Dec-01 18:30N 49°17' W 122°58'71166.6
2017-Dec-01 18:30N 49°12' W 123°06'714.5
2017-Dec-01 18:00N 49°18' W 122°60'712886.0
2017-Dec-01 18:00N 49°12' W 123°06'0 0.0
2017-Dec-01 17:30N 49°12' W 123°06'74090.4
2017-Dec-01 17:30N 49°18' W 123°00'713.7
2017-Dec-01 17:00N 49°12' W 123°06'83864.8
2017-Dec-01 17:00N 49°18' W 122°58'715.0
2017-Dec-01 16:30N 49°12' W 123°06'73845.0
2017-Dec-01 16:30N 49°18' W 122°58'0 0.2
2017-Dec-01 16:00N 49°17' W 122°58'72234.6
2017-Dec-01 16:00N 49°12' W 123°06'0 0.0
2017-Dec-01 15:30N 49°12' W 123°06'74471.9
2017-Dec-01 15:30N 49°17' W 122°58'0 0.0
2017-Dec-01 15:00N 49°17' W 122°58'72061.5
2017-Dec-01 15:00N 49°12' W 123°06'715.0
2017-Dec-01 14:30N 49°17' W 122°58'71165.9
2017-Dec-01 14:30N 49°12' W 123°06'0 0.0
2017-Dec-01 14:00N 49°12' W 123°06'74469.2
2017-Dec-01 14:00N 49°17' W 122°58'0 0.0
2017-Dec-01 13:30N 49°17' W 122°58'71915.4
2017-Dec-01 13:30N 49°12' W 123°06'0 0.0
2017-Dec-01 13:00N 49°12' W 123°06'73349.9
2017-Dec-01 13:00N 49°17' W 122°58'0 0.0
2017-Dec-01 12:30N 49°17' W 122°58'78938.4
2017-Dec-01 12:30N 49°12' W 123°06'714.9
2017-Dec-01 12:00N 49°17' W 122°58'71218.9
2017-Dec-01 12:00N 49°12' W 123°06'715.1
2017-Dec-01 11:30N 49°17' W 122°58'71913.1
2017-Dec-01 11:30N 49°12' W 123°06'714.8
2017-Dec-01 11:00N 49°17' W 122°58'76723.4
2017-Dec-01 11:00N 49°12' W 123°06'0 0.1
2017-Dec-01 10:30N 49°12' W 123°06'7129.5
2017-Dec-01 10:27N 49°17' W 122°58'716.5
2017-Dec-01 10:00N 49°12' W 123°06'7170.8
2017-Dec-01 09:57N 49°17' W 122°58'  

Dump ship's entire track history